Jasper, Oregon
Current Conditions -  °F | °C
As of 1:54 AM on Sunday 26 Oct 2014 (Local Time) from KEUG Reporting Station
Overcast Overcast  
Wind Chill: 50°   Ceiling: 6500
Heat Index: 50°   Visibility: 10mi
Dew Point: 47°   Wind: 10mph
Humidity: 89%   Direction: 190°S
Pressure: 30.04"   Gusts: NA
Location:  43.9537°N, 122.621°W
Report Text: KEUG 260854Z AUTO 19009KT 10SM FEW043 BKN065 OVC080 10/08 A3004 RMK AO2 RAB13E25 SLP172 P0000 60000 T01000083 53020 $
Loading
Personal Weather Stations






























Interactive Weather Map
Tropical Storm Tracking
New forecast layout! Learn more

10-Day Weather Forecast

Advertisements
Track Severe Weather on mobile